createdAt,value
2018-08-28T00:01:01.436Z,13.2
2018-08-28T00:02:08.385Z,13.3
2018-08-28T00:03:15.607Z,13.3
2018-08-28T00:04:22.822Z,13.3
2018-08-28T00:05:30.044Z,13.4
2018-08-28T00:06:36.710Z,13.4
2018-08-28T00:07:43.923Z,13.3
2018-08-28T00:08:51.141Z,13.4
2018-08-28T00:09:58.355Z,13.4
2018-08-28T00:11:05.304Z,13.4
2018-08-28T00:12:12.251Z,13.4
2018-08-28T00:13:19.463Z,13.4
2018-08-28T00:14:26.681Z,13.4
2018-08-28T00:15:33.895Z,13.5
2018-08-28T00:16:40.836Z,13.5
2018-08-28T00:17:48.060Z,13.5
2018-08-28T00:18:55.284Z,13.6
2018-08-28T00:20:02.501Z,13.6
2018-08-28T00:21:09.718Z,13.5
2018-08-28T00:22:16.680Z,13.5
2018-08-28T00:23:23.908Z,13.6
2018-08-28T00:24:31.121Z,13.6
2018-08-28T00:25:38.333Z,13.6
2018-08-28T00:26:45.557Z,13.6
2018-08-28T00:27:52.782Z,13.6
2018-08-28T00:29:14.377Z,13.6
2018-08-28T00:30:21.600Z,13.6
2018-08-28T00:31:28.830Z,13.6
2018-08-28T00:32:36.051Z,13.6
2018-08-28T00:33:43.270Z,13.6
2018-08-28T00:34:50.489Z,13.5
2018-08-28T00:35:57.722Z,13.5
2018-08-28T00:37:04.934Z,13.5
2018-08-28T00:38:12.142Z,13.5
2018-08-28T00:39:19.363Z,13.5
2018-08-28T00:40:26.580Z,13.5
2018-08-28T00:41:33.799Z,13.5
2018-08-28T00:42:40.746Z,13.5
2018-08-28T00:43:47.963Z,13.4
2018-08-28T00:44:55.181Z,13.4
2018-08-28T00:46:02.401Z,13.3
2018-08-28T00:47:09.627Z,13.3
2018-08-28T00:48:16.840Z,13.3
2018-08-28T00:49:24.073Z,13.2
2018-08-28T00:50:31.287Z,13.3
2018-08-28T00:51:38.510Z,13.3
2018-08-28T00:52:45.728Z,13.2
2018-08-28T00:53:52.670Z,13.2
2018-08-28T00:54:59.889Z,13.2
2018-08-28T00:56:07.110Z,13.3
2018-08-28T00:57:14.321Z,13.3
2018-08-28T00:58:21.256Z,13.3
2018-08-28T00:59:28.475Z,13.2
2018-08-28T01:00:35.686Z,13.3
2018-08-28T01:01:42.913Z,13.3
2018-08-28T01:02:50.164Z,13.3
2018-08-28T01:03:57.382Z,13.3
2018-08-28T01:05:04.604Z,13.3
2018-08-28T01:06:11.543Z,13.3
2018-08-28T01:07:18.503Z,13.3
2018-08-28T01:08:25.730Z,13.4
2018-08-28T01:09:32.942Z,13.4
2018-08-28T01:10:40.161Z,13.4
2018-08-28T01:11:47.372Z,13.5
2018-08-28T01:12:54.588Z,13.4
2018-08-28T01:14:01.828Z,13.5
2018-08-28T01:15:08.783Z,13.5
2018-08-28T01:16:16.026Z,13.5
2018-08-28T01:17:23.241Z,13.5
2018-08-28T01:18:30.477Z,13.5
2018-08-28T01:19:37.720Z,13.5
2018-08-28T01:20:44.943Z,13.5
2018-08-28T01:21:51.893Z,13.5
2018-08-28T01:22:59.157Z,13.5
2018-08-28T01:24:06.085Z,13.5
2018-08-28T01:25:13.314Z,13.5
2018-08-28T01:26:20.549Z,13.5
2018-08-28T01:27:27.786Z,13.5
2018-08-28T01:28:35.002Z,13.5
2018-08-28T01:29:42.234Z,13.5
2018-08-28T01:30:49.178Z,13.5
2018-08-28T01:31:56.148Z,13.5
2018-08-28T01:33:03.094Z,13.6
2018-08-28T01:34:10.540Z,13.5
2018-08-28T01:35:17.758Z,13.5
2018-08-28T01:36:24.972Z,13.5
2018-08-28T01:37:31.913Z,13.5
2018-08-28T01:38:39.129Z,13.6
2018-08-28T01:39:46.346Z,13.6
2018-08-28T01:40:53.563Z,13.5
2018-08-28T01:42:00.792Z,13.6
2018-08-28T01:43:08.010Z,13.6
2018-08-28T01:44:15.226Z,13.6
2018-08-28T01:45:22.458Z,13.6
2018-08-28T01:46:29.138Z,13.6
2018-08-28T01:47:36.078Z,13.6
2018-08-28T01:48:43.029Z,13.7
2018-08-28T01:49:50.242Z,13.7
2018-08-28T01:50:57.456Z,13.7
2018-08-28T01:52:04.677Z,13.7
2018-08-28T01:53:11.900Z,13.7
2018-08-28T01:54:19.134Z,13.7
2018-08-28T01:55:26.355Z,13.7
2018-08-28T01:56:33.599Z,13.7
2018-08-28T01:57:40.550Z,13.7
2018-08-28T01:58:47.765Z,13.7
2018-08-28T01:59:54.981Z,13.7
2018-08-28T02:01:01.933Z,13.7
2018-08-28T02:02:09.146Z,13.7
2018-08-28T02:03:16.368Z,13.7
2018-08-28T02:04:23.580Z,13.7
2018-08-28T02:05:30.796Z,13.7
2018-08-28T02:06:38.015Z,13.7
2018-08-28T02:07:45.231Z,13.7
2018-08-28T02:08:52.448Z,13.7
2018-08-28T02:09:59.682Z,13.7
2018-08-28T02:11:06.901Z,13.7
2018-08-28T02:12:14.141Z,13.7
2018-08-28T02:13:21.620Z,13.7
2018-08-28T02:14:29.180Z,13.7
2018-08-28T02:15:36.399Z,13.6
2018-08-28T02:16:43.343Z,13.7
2018-08-28T02:17:50.283Z,13.6
2018-08-28T02:18:57.501Z,13.6
2018-08-28T02:20:04.716Z,13.6
2018-08-28T02:21:11.931Z,13.6
2018-08-28T02:22:19.157Z,13.6
2018-08-28T02:23:26.373Z,13.5
2018-08-28T02:24:33.329Z,13.5
2018-08-28T02:25:40.542Z,13.5
2018-08-28T02:26:47.763Z,13.4
2018-08-28T02:27:54.977Z,13.4
2018-08-28T02:29:02.196Z,13.4
2018-08-28T02:30:09.412Z,13.4
2018-08-28T02:31:16.331Z,13.4
2018-08-28T02:32:23.548Z,13.4
2018-08-28T02:33:30.849Z,13.3
2018-08-28T02:34:38.139Z,13.3
2018-08-28T02:35:45.079Z,13.3
2018-08-28T02:36:52.292Z,13.3
2018-08-28T02:37:59.506Z,13.2
2018-08-28T02:39:06.451Z,13.2
2018-08-28T02:40:13.666Z,13.1
2018-08-28T02:41:20.604Z,13.1
2018-08-28T02:42:27.816Z,13.1
2018-08-28T02:43:35.031Z,13.1
2018-08-28T02:44:42.249Z,13.1
2018-08-28T02:45:49.469Z,13
2018-08-28T02:46:56.419Z,13
2018-08-28T02:48:03.646Z,13
2018-08-28T02:49:10.868Z,12.9
2018-08-28T02:50:17.812Z,12.9
2018-08-28T02:51:25.030Z,12.9
2018-08-28T02:52:31.972Z,12.9
2018-08-28T02:53:39.197Z,12.9
2018-08-28T02:54:46.415Z,12.8
2018-08-28T02:55:53.629Z,12.8
2018-08-28T02:57:00.845Z,12.7
2018-08-28T02:58:08.064Z,12.7
2018-08-28T02:59:15.278Z,12.7
2018-08-28T03:00:22.493Z,12.7
2018-08-28T03:01:29.705Z,12.7
2018-08-28T03:02:36.927Z,12.7
2018-08-28T03:03:44.162Z,12.6
2018-08-28T03:04:51.393Z,12.7
2018-08-28T03:05:58.334Z,12.6
2018-08-28T03:07:05.274Z,12.6
2018-08-28T03:08:12.485Z,12.6
2018-08-28T03:09:19.709Z,12.6
2018-08-28T03:10:26.929Z,12.6
2018-08-28T03:11:34.340Z,12.6
2018-08-28T03:12:41.798Z,12.6
2018-08-28T03:13:49.014Z,12.6
2018-08-28T03:14:56.229Z,12.5
2018-08-28T03:16:03.646Z,12.5
2018-08-28T03:17:11.277Z,12.5
2018-08-28T03:18:18.500Z,12.5
2018-08-28T03:19:25.716Z,12.5
2018-08-28T03:20:32.932Z,12.5
2018-08-28T03:21:40.153Z,12.5
2018-08-28T03:22:47.380Z,12.5
2018-08-28T03:23:54.607Z,12.5
2018-08-28T03:25:01.826Z,12.5
2018-08-28T03:26:09.039Z,12.6
2018-08-28T03:27:16.257Z,12.5
2018-08-28T03:28:23.197Z,12.5
2018-08-28T03:29:30.418Z,12.5
2018-08-28T03:30:37.647Z,12.4
2018-08-28T03:31:44.588Z,12.5
2018-08-28T03:32:51.803Z,12.5
2018-08-28T03:33:58.759Z,12.5
2018-08-28T03:35:05.974Z,12.5
2018-08-28T03:36:13.182Z,12.5
2018-08-28T03:37:20.397Z,12.5
2018-08-28T03:38:27.610Z,12.5
2018-08-28T03:39:34.840Z,12.4
2018-08-28T03:40:42.052Z,12.4
2018-08-28T03:41:49.285Z,12.4
2018-08-28T03:42:56.506Z,12.4
2018-08-28T03:44:03.717Z,12.4
2018-08-28T03:45:10.932Z,12.4
2018-08-28T03:46:18.144Z,12.4
2018-08-28T03:47:25.363Z,12.4
2018-08-28T03:48:32.308Z,12.4
2018-08-28T03:49:39.531Z,12.4
2018-08-28T03:50:46.746Z,12.4
2018-08-28T03:51:53.693Z,12.4
2018-08-28T03:53:00.632Z,12.4
2018-08-28T03:54:07.574Z,12.4
2018-08-28T03:55:14.815Z,12.4
2018-08-28T03:56:22.078Z,12.5
2018-08-28T03:57:29.016Z,12.5
2018-08-28T03:58:36.242Z,12.5
2018-08-28T03:59:43.463Z,12.6
2018-08-28T04:00:50.410Z,12.5
2018-08-28T04:01:57.622Z,12.6
2018-08-28T04:03:04.842Z,12.6
2018-08-28T04:04:12.062Z,12.6
2018-08-28T04:05:19.289Z,12.5
2018-08-28T04:06:26.520Z,12.5
2018-08-28T04:07:34.279Z,12.5
2018-08-28T04:08:41.507Z,12.5
2018-08-28T04:09:48.728Z,12.5
2018-08-28T04:10:55.950Z,12.5
2018-08-28T04:12:02.954Z,12.4
2018-08-28T04:13:10.152Z,12.5
2018-08-28T04:14:17.379Z,12.5
2018-08-28T04:15:24.318Z,12.5
2018-08-28T04:16:31.545Z,12.5
2018-08-28T04:17:38.758Z,12.4
2018-08-28T04:18:45.973Z,12.4
2018-08-28T04:19:52.924Z,12.3
2018-08-28T04:21:00.142Z,12.3
2018-08-28T04:22:07.355Z,12.3
2018-08-28T04:23:14.580Z,12.3
2018-08-28T04:24:21.804Z,12.3
2018-08-28T04:25:29.019Z,12.2
2018-08-28T04:26:36.237Z,12.2
2018-08-28T04:27:43.454Z,12.2
2018-08-28T04:28:50.674Z,12.1
2018-08-28T04:29:57.893Z,12.1
2018-08-28T04:31:04.560Z,12
2018-08-28T04:32:11.773Z,12.1
2018-08-28T04:33:18.988Z,12
2018-08-28T04:34:26.204Z,12
2018-08-28T04:35:33.417Z,12
2018-08-28T04:36:40.639Z,12
2018-08-28T04:37:47.861Z,11.9
2018-08-28T04:38:55.082Z,11.9
2018-08-28T04:40:02.305Z,11.8
2018-08-28T04:41:09.533Z,11.8
2018-08-28T04:42:16.740Z,11.8
2018-08-28T04:43:23.959Z,11.8
2018-08-28T04:44:31.180Z,11.8
2018-08-28T04:45:38.397Z,11.9
2018-08-28T04:46:45.614Z,11.9
2018-08-28T04:47:52.824Z,11.9
2018-08-28T04:49:00.184Z,11.9
2018-08-28T04:50:07.889Z,11.9
2018-08-28T04:51:15.125Z,12
2018-08-28T04:52:22.345Z,12
2018-08-28T04:53:29.570Z,12
2018-08-28T04:54:36.793Z,12
2018-08-28T04:55:44.004Z,12
2018-08-28T04:56:51.221Z,12.1
2018-08-28T04:57:58.440Z,12.1
2018-08-28T04:59:05.659Z,12.1
2018-08-28T05:00:12.880Z,12.1
2018-08-28T05:01:20.098Z,12.1
2018-08-28T05:02:27.322Z,12.2
2018-08-28T05:03:34.542Z,12.2
2018-08-28T05:04:41.757Z,12.3
2018-08-28T05:05:48.977Z,12.2
2018-08-28T05:06:56.189Z,12.3
2018-08-28T05:08:03.399Z,12.3
2018-08-28T05:09:10.631Z,12.2
2018-08-28T05:10:17.854Z,12.3
2018-08-28T05:11:24.802Z,12.4
2018-08-28T05:12:32.026Z,12.4
2018-08-28T05:13:39.241Z,12.5
2018-08-28T05:14:46.182Z,12.5
2018-08-28T05:15:53.461Z,12.5
2018-08-28T05:17:00.894Z,12.5
2018-08-28T05:18:08.167Z,12.5
2018-08-28T05:19:15.489Z,12.6
2018-08-28T05:20:22.864Z,12.6
2018-08-28T05:21:30.086Z,12.6
2018-08-28T05:22:37.338Z,12.6
2018-08-28T05:23:44.280Z,12.7
2018-08-28T05:24:51.493Z,12.7
2018-08-28T05:25:58.435Z,12.8
2018-08-28T05:27:05.648Z,12.8
2018-08-28T05:28:12.867Z,12.9
2018-08-28T05:29:19.880Z,13
2018-08-28T05:30:27.343Z,13
2018-08-28T05:31:34.725Z,13
2018-08-28T05:32:41.940Z,13.1
2018-08-28T05:33:49.173Z,13.1
2018-08-28T05:34:56.113Z,13.2
2018-08-28T05:36:03.062Z,13.2
2018-08-28T05:37:10.284Z,13.3
2018-08-28T05:38:17.503Z,13.3
2018-08-28T05:39:24.718Z,13.4
2018-08-28T05:40:46.584Z,13.4
2018-08-28T05:41:53.804Z,13.5
2018-08-28T05:43:01.018Z,13.6
2018-08-28T05:44:07.961Z,13.6
2018-08-28T05:45:15.172Z,13.7
2018-08-28T05:46:22.388Z,13.7
2018-08-28T05:47:29.610Z,13.8
2018-08-28T05:48:36.821Z,13.8
2018-08-28T05:49:44.443Z,13.8
2018-08-28T05:50:51.665Z,13.9
2018-08-28T05:51:58.880Z,13.9
2018-08-28T05:53:06.093Z,13.9
2018-08-28T05:54:13.316Z,13.9
2018-08-28T05:55:20.251Z,14
2018-08-28T05:56:27.470Z,14
2018-08-28T05:57:34.695Z,14
2018-08-28T05:58:41.914Z,14
2018-08-28T05:59:49.160Z,14.1
2018-08-28T06:00:56.375Z,14.1
2018-08-28T06:02:03.598Z,14.1
2018-08-28T06:03:11.092Z,14.1
2018-08-28T06:04:18.602Z,14.2
2018-08-28T06:05:25.864Z,14.2
2018-08-28T06:06:33.081Z,14.3
2018-08-28T06:07:40.326Z,14.3
2018-08-28T06:08:47.609Z,14.4
2018-08-28T06:09:54.897Z,14.3
2018-08-28T06:11:01.840Z,14.3
2018-08-28T06:12:23.708Z,14.2
2018-08-28T06:13:30.651Z,14.3
2018-08-28T06:14:37.920Z,14.3
2018-08-28T06:15:45.251Z,14.3
2018-08-28T06:16:52.475Z,14.3
2018-08-28T06:17:59.705Z,14.3
2018-08-28T06:19:06.920Z,14.3
2018-08-28T06:20:14.139Z,14.3
2018-08-28T06:21:21.070Z,14.3
2018-08-28T06:22:28.292Z,14.4
2018-08-28T06:23:35.517Z,14.4
2018-08-28T06:24:42.459Z,14.4
2018-08-28T06:25:49.674Z,14.4
2018-08-28T06:26:56.613Z,14.4
2018-08-28T06:28:03.855Z,14.5
2018-08-28T06:29:11.069Z,14.5
2018-08-28T06:30:18.286Z,14.7
2018-08-28T06:31:25.500Z,14.8
2018-08-28T06:32:32.714Z,15
2018-08-28T06:33:39.928Z,15.1
2018-08-28T06:34:47.142Z,15.3
2018-08-28T06:35:54.367Z,15.3
2018-08-28T06:37:01.577Z,15.3
2018-08-28T06:38:08.521Z,15.5
2018-08-28T06:39:15.734Z,15.6
2018-08-28T06:40:22.951Z,15.6
2018-08-28T06:41:30.173Z,15.7
2018-08-28T06:42:37.387Z,15.8
2018-08-28T06:43:44.695Z,15.9
2018-08-28T06:44:52.011Z,16.1
2018-08-28T06:45:59.220Z,16.2
2018-08-28T06:47:06.436Z,16.2
2018-08-28T06:48:13.662Z,16.4
2018-08-28T06:49:20.887Z,16.4
2018-08-28T06:50:28.108Z,16.5
2018-08-28T06:51:35.324Z,16.6
2018-08-28T06:52:42.538Z,16.8
2018-08-28T06:53:49.759Z,16.8
2018-08-28T06:54:56.990Z,16.9
2018-08-28T06:56:04.212Z,17
2018-08-28T06:57:11.440Z,17.1
2018-08-28T06:58:18.693Z,17.1
2018-08-28T06:59:25.632Z,17.2
2018-08-28T07:00:32.574Z,17.3
2018-08-28T07:01:39.791Z,17.3
2018-08-28T07:02:47.015Z,17.3
2018-08-28T07:03:54.310Z,17.4
2018-08-28T07:05:01.654Z,17.6
2018-08-28T07:06:08.873Z,17.7
2018-08-28T07:07:16.091Z,17.8
2018-08-28T07:08:23.316Z,18
2018-08-28T07:09:30.257Z,18.1
2018-08-28T07:10:37.213Z,18.1
2018-08-28T07:11:44.436Z,18.3
2018-08-28T07:12:51.393Z,18.4
2018-08-28T07:13:58.612Z,18.3
2018-08-28T07:15:05.847Z,18.4
2018-08-28T07:16:13.062Z,18.5
2018-08-28T07:17:20.282Z,18.5
2018-08-28T07:18:27.510Z,18.6
2018-08-28T07:19:34.725Z,18.6
2018-08-28T07:20:41.952Z,18.7
2018-08-28T07:21:49.186Z,18.7
2018-08-28T07:22:56.424Z,18.9
2018-08-28T07:24:03.666Z,18.9
2018-08-28T07:25:10.888Z,19.1
2018-08-28T07:26:17.858Z,19.1
2018-08-28T07:27:25.086Z,19.2
2018-08-28T07:28:32.306Z,19.3
2018-08-28T07:29:39.529Z,19.1
2018-08-28T07:30:46.480Z,19.1
2018-08-28T07:31:53.979Z,19.3
2018-08-28T07:33:01.594Z,19.5
2018-08-28T07:34:08.816Z,19.7
2018-08-28T07:35:16.036Z,20
2018-08-28T07:36:23.251Z,20.2
2018-08-28T07:37:30.298Z,20.3
2018-08-28T07:38:37.805Z,20.4
2018-08-28T07:39:45.024Z,20.5
2018-08-28T07:40:52.240Z,20.5
2018-08-28T07:41:59.460Z,20.4
2018-08-28T07:43:06.683Z,20.4
2018-08-28T07:44:13.898Z,20.4
2018-08-28T07:45:20.853Z,20.3
2018-08-28T07:46:28.078Z,20.4
2018-08-28T07:47:35.297Z,20.4
2018-08-28T07:48:42.518Z,20.3
2018-08-28T07:49:49.738Z,20.3
2018-08-28T07:50:56.696Z,20.3
2018-08-28T07:52:03.632Z,20.5
2018-08-28T07:53:10.857Z,20.7
2018-08-28T07:54:18.078Z,21
2018-08-28T07:55:25.300Z,21.1
2018-08-28T07:56:32.543Z,21.3
2018-08-28T07:57:39.758Z,21.4
2018-08-28T07:58:46.991Z,21.4
2018-08-28T07:59:54.217Z,21.2
2018-08-28T08:01:01.438Z,20.9
2018-08-28T08:02:08.663Z,20.8
2018-08-28T08:03:15.889Z,20.5
2018-08-28T08:04:22.830Z,20.1
2018-08-28T08:05:30.072Z,19.8
2018-08-28T08:06:37.340Z,19.6
2018-08-28T08:07:44.026Z,19.6
2018-08-28T08:08:50.957Z,19.9
2018-08-28T08:09:58.173Z,20.2
2018-08-28T08:11:05.121Z,20.5
2018-08-28T08:12:12.341Z,20.6
2018-08-28T08:13:19.561Z,20.9
2018-08-28T08:14:26.787Z,21.1
2018-08-28T08:15:33.829Z,21.5
2018-08-28T08:16:41.108Z,21.5
2018-08-28T08:17:48.343Z,21.2
2018-08-28T08:18:55.582Z,21.3
2018-08-28T08:20:02.806Z,21.5
2018-08-28T08:21:10.051Z,21.8
2018-08-28T08:22:17.585Z,22
2018-08-28T08:23:24.837Z,22.3
2018-08-28T08:24:31.816Z,22.4
2018-08-28T08:25:38.493Z,22.7
2018-08-28T08:26:45.719Z,23
2018-08-28T08:27:53.041Z,23.1
2018-08-28T08:29:00.452Z,23.2
2018-08-28T08:30:07.409Z,23.2
2018-08-28T08:31:14.644Z,23.3
2018-08-28T08:32:21.875Z,23.4
2018-08-28T08:33:28.829Z,23.4
2018-08-28T08:34:36.067Z,23.3
2018-08-28T08:35:43.293Z,23
2018-08-28T08:36:50.244Z,22.6
2018-08-28T08:37:57.466Z,22.5
2018-08-28T08:39:04.412Z,22.7
2018-08-28T08:40:11.641Z,23
2018-08-28T08:41:18.857Z,23.4
2018-08-28T08:42:26.083Z,23.5
2018-08-28T08:43:33.317Z,23.5
2018-08-28T08:44:40.535Z,23.6
2018-08-28T08:45:47.498Z,23.6
2018-08-28T08:46:54.736Z,23.7
2018-08-28T08:48:01.964Z,23.8
2018-08-28T08:49:09.189Z,23.9
2018-08-28T08:50:16.405Z,24.1
2018-08-28T08:51:23.628Z,23.7
2018-08-28T08:52:30.854Z,23.6
2018-08-28T08:53:37.807Z,23.7
2018-08-28T08:54:45.156Z,23.9
2018-08-28T08:55:52.385Z,24.1
2018-08-28T08:56:59.615Z,24
2018-08-28T08:58:06.839Z,24.1
2018-08-28T08:59:14.290Z,24.2
2018-08-28T09:00:21.513Z,24.5
2018-08-28T09:01:28.967Z,24.7
2018-08-28T09:02:36.194Z,24.9
2018-08-28T09:03:43.379Z,24.5
2018-08-28T09:04:50.606Z,24.3
2018-08-28T09:05:57.894Z,24.3
2018-08-28T09:07:05.299Z,24
2018-08-28T09:08:12.538Z,24
2018-08-28T09:09:19.763Z,23.8
2018-08-28T09:10:26.990Z,23.8
2018-08-28T09:11:34.213Z,24.1
2018-08-28T09:12:41.437Z,24.3
2018-08-28T09:13:48.666Z,24.4
2018-08-28T09:14:55.886Z,24.4
2018-08-28T09:16:03.112Z,24.7
2018-08-28T09:17:10.331Z,25
2018-08-28T09:18:17.553Z,25.1
2018-08-28T09:19:24.588Z,25.1
2018-08-28T09:20:32.217Z,25.1
2018-08-28T09:21:39.443Z,25.2
2018-08-28T09:22:46.120Z,24.8
2018-08-28T09:23:53.344Z,24.1
2018-08-28T09:25:00.563Z,24.1
2018-08-28T09:26:07.781Z,24.3
2018-08-28T09:27:15.007Z,24.5
2018-08-28T09:28:22.233Z,24.6
2018-08-28T09:29:29.443Z,23.9
2018-08-28T09:30:36.663Z,23.3
2018-08-28T09:31:44.083Z,22.4
2018-08-28T09:32:51.515Z,22.3
2018-08-28T09:33:58.742Z,22.5
2018-08-28T09:35:05.695Z,22.6
2018-08-28T09:36:12.918Z,22.7
2018-08-28T09:37:20.155Z,22.9
2018-08-28T09:38:27.362Z,23
2018-08-28T09:39:34.870Z,23.2
2018-08-28T09:40:42.090Z,23.1
2018-08-28T09:41:49.326Z,23.2
2018-08-28T09:42:56.549Z,23.3
2018-08-28T09:44:03.773Z,23.5
2018-08-28T09:45:10.996Z,23.9
2018-08-28T09:46:18.225Z,24.3
2018-08-28T09:47:25.490Z,24.8
2018-08-28T09:48:33.011Z,25.3
2018-08-28T09:49:40.475Z,25.4
2018-08-28T09:50:47.993Z,25.2
2018-08-28T09:51:55.543Z,24.9
2018-08-28T09:53:02.772Z,24.9
2018-08-28T09:54:10.000Z,24.6
2018-08-28T09:55:17.229Z,24.4
2018-08-28T09:56:24.486Z,24.2
2018-08-28T09:57:31.788Z,24.2
2018-08-28T09:58:39.011Z,24.5
2018-08-28T09:59:46.163Z,24.7
2018-08-28T10:00:53.386Z,24.8
2018-08-28T10:02:00.605Z,24.8
2018-08-28T10:03:07.832Z,24.8
2018-08-28T10:04:15.083Z,24.8
2018-08-28T10:05:22.314Z,24.9
2018-08-28T10:06:29.782Z,25.2
2018-08-28T10:07:37.017Z,25.2
2018-08-28T10:08:44.252Z,25.1
2018-08-28T10:09:51.475Z,25
2018-08-28T10:10:58.849Z,25.2
2018-08-28T10:12:06.303Z,25.3
2018-08-28T10:13:13.527Z,25.5
2018-08-28T10:14:20.743Z,25.8
2018-08-28T10:15:27.976Z,26.1
2018-08-28T10:16:35.234Z,26.3
2018-08-28T10:17:42.469Z,26.1
2018-08-28T10:18:49.693Z,25.3
2018-08-28T10:19:56.920Z,25.3
2018-08-28T10:21:04.143Z,25.2
2018-08-28T10:22:11.367Z,24.9
2018-08-28T10:23:18.589Z,25.1
2018-08-28T10:24:25.818Z,25.5
2018-08-28T10:25:33.042Z,26
2018-08-28T10:26:40.499Z,25.9
2018-08-28T10:27:47.736Z,25.3
2018-08-28T10:28:54.971Z,24.8
2018-08-28T10:30:02.191Z,24.7
2018-08-28T10:31:09.427Z,24.8
2018-08-28T10:32:16.649Z,24.8
2018-08-28T10:33:23.871Z,24.7
2018-08-28T10:34:30.817Z,24.8
2018-08-28T10:35:38.041Z,24.9
2018-08-28T10:36:45.264Z,25.4
2018-08-28T10:37:52.513Z,25.9
2018-08-28T10:38:59.742Z,26.3
2018-08-28T10:40:06.692Z,26.8
2018-08-28T10:41:13.924Z,27.1
2018-08-28T10:42:21.142Z,27.4
2018-08-28T10:43:28.363Z,27.4
2018-08-28T10:44:35.603Z,27.3
2018-08-28T10:45:42.829Z,26.2
2018-08-28T10:46:50.520Z,25.9
2018-08-28T10:47:58.564Z,25.7
2018-08-28T10:49:05.787Z,25.6
2018-08-28T10:50:13.009Z,25.7
2018-08-28T10:51:20.228Z,26.2
2018-08-28T10:52:27.466Z,26.5
2018-08-28T10:53:34.686Z,26.8
2018-08-28T10:54:41.911Z,26.8
2018-08-28T10:55:49.157Z,26.6
2018-08-28T10:56:56.385Z,26.6
2018-08-28T10:58:03.630Z,26.8
2018-08-28T10:59:10.852Z,26.7
2018-08-28T11:00:18.096Z,26.7
2018-08-28T11:01:25.345Z,26.9
2018-08-28T11:02:32.591Z,26.3
2018-08-28T11:03:39.828Z,26
2018-08-28T11:04:47.053Z,25.8
2018-08-28T11:05:54.279Z,25.5
2018-08-28T11:07:01.728Z,25.7
2018-08-28T11:08:08.947Z,26
2018-08-28T11:09:16.407Z,25.8
2018-08-28T11:10:23.633Z,25.8
2018-08-28T11:11:30.300Z,26.3
2018-08-28T11:12:37.528Z,27
2018-08-28T11:13:44.783Z,27
2018-08-28T11:14:51.720Z,27.3
2018-08-28T11:15:58.732Z,27.6
2018-08-28T11:17:06.016Z,27.7
2018-08-28T11:18:13.240Z,27.5
2018-08-28T11:19:20.468Z,27.7
2018-08-28T11:20:27.693Z,27.5
2018-08-28T11:21:34.925Z,27.5
2018-08-28T11:22:42.166Z,27.4
2018-08-28T11:23:49.443Z,26.9
2018-08-28T11:24:56.668Z,26.6
2018-08-28T11:26:03.892Z,26.9
2018-08-28T11:27:11.113Z,27.1
2018-08-28T11:28:18.341Z,27.4
2018-08-28T11:29:25.301Z,27.9
2018-08-28T11:30:32.624Z,27.9
2018-08-28T11:31:39.573Z,28.3
2018-08-28T11:32:46.811Z,28.6
2018-08-28T11:33:54.055Z,28.5
2018-08-28T11:35:01.293Z,28.1
2018-08-28T11:36:08.510Z,27.6
2018-08-28T11:37:15.734Z,26.8
2018-08-28T11:38:23.096Z,26.6
2018-08-28T11:39:30.581Z,26.7
2018-08-28T11:40:37.800Z,26.6
2018-08-28T11:41:45.031Z,26.5
2018-08-28T11:42:52.252Z,26.9
2018-08-28T11:43:59.193Z,27.4
2018-08-28T11:45:06.422Z,27.7
2018-08-28T11:46:13.645Z,28
2018-08-28T11:47:20.872Z,28.3
2018-08-28T11:48:27.811Z,28.2
2018-08-28T11:49:35.035Z,28.3
2018-08-28T11:50:42.259Z,28.6
2018-08-28T11:51:49.485Z,28.5
2018-08-28T11:52:56.707Z,28.7
2018-08-28T11:54:03.938Z,28.7
2018-08-28T11:55:10.887Z,28.5
2018-08-28T11:56:18.122Z,28.3
2018-08-28T11:57:24.810Z,28.3
2018-08-28T11:58:32.042Z,28.6
2018-08-28T11:59:39.267Z,28.9
2018-08-28T12:00:46.229Z,29.1
2018-08-28T12:01:53.565Z,29
2018-08-28T12:03:00.898Z,29.2
2018-08-28T12:04:08.133Z,29.1
2018-08-28T12:05:15.482Z,29.3
2018-08-28T12:06:22.506Z,29.5
2018-08-28T12:07:30.024Z,29.6
2018-08-28T12:08:37.697Z,29.7
2018-08-28T12:09:44.648Z,29.5
2018-08-28T12:10:51.875Z,29.5
2018-08-28T12:11:59.097Z,29
2018-08-28T12:13:06.406Z,28.4
2018-08-28T12:14:13.886Z,28.2
2018-08-28T12:15:21.108Z,27.8
2018-08-28T12:16:28.333Z,27.4
2018-08-28T12:17:35.575Z,27.4
2018-08-28T12:18:42.801Z,27.6
2018-08-28T12:19:50.028Z,27.8
2018-08-28T12:20:57.369Z,28.1
2018-08-28T12:22:04.523Z,28.5
2018-08-28T12:23:12.137Z,29
2018-08-28T12:24:19.377Z,29.1
2018-08-28T12:25:26.836Z,29
2018-08-28T22:00:06.161Z,13
2018-08-28T22:01:13.400Z,12.9
2018-08-28T22:02:20.623Z,12.9
2018-08-28T22:03:27.601Z,12.9
2018-08-28T22:04:34.826Z,12.9
2018-08-28T22:05:42.035Z,12.8
2018-08-28T22:06:49.333Z,12.8
2018-08-28T22:07:56.706Z,12.8
2018-08-28T22:09:03.927Z,12.7
2018-08-28T22:10:10.616Z,12.7
2018-08-28T22:11:17.832Z,12.7
2018-08-28T22:12:25.058Z,12.7
2018-08-28T22:13:32.627Z,12.7
2018-08-28T22:14:40.166Z,12.7
2018-08-28T22:15:47.385Z,12.7
2018-08-28T22:16:54.608Z,12.7
2018-08-28T22:18:01.839Z,12.6
2018-08-28T22:19:08.793Z,12.6
2018-08-28T22:20:16.004Z,12.6
2018-08-28T22:21:23.230Z,12.6
2018-08-28T22:22:30.447Z,12.6
2018-08-28T22:23:37.661Z,12.6
2018-08-28T22:24:44.881Z,12.6
2018-08-28T22:25:52.097Z,12.6
2018-08-28T22:26:59.330Z,12.6
2018-08-28T22:28:06.548Z,12.6
2018-08-28T22:29:13.765Z,12.5
2018-08-28T22:30:20.973Z,12.5
2018-08-28T22:31:28.188Z,12.5
2018-08-28T22:32:35.408Z,12.5
2018-08-28T22:33:42.624Z,12.5
2018-08-28T22:35:56.479Z,12.5
2018-08-28T22:37:03.710Z,12.5
2018-08-28T22:38:10.667Z,12.5
2018-08-28T22:39:17.873Z,12.4
2018-08-28T22:40:25.088Z,12.4
2018-08-28T22:41:32.302Z,12.4
2018-08-28T22:42:39.517Z,12.4
2018-08-28T22:43:46.735Z,12.4
2018-08-28T22:44:53.950Z,12.3
2018-08-28T22:46:01.187Z,12.3
2018-08-28T22:47:08.414Z,12.3
2018-08-28T22:48:15.646Z,12.3
2018-08-28T22:49:22.863Z,12.3
2018-08-28T22:50:30.082Z,12.3
2018-08-28T22:51:37.303Z,12.3
2018-08-28T22:52:44.258Z,12.3
2018-08-28T22:53:51.486Z,12.3
2018-08-28T22:54:58.704Z,12.2
2018-08-28T22:56:05.926Z,12.3
2018-08-28T22:57:13.149Z,12.2
2018-08-28T22:58:20.092Z,12.3
2018-08-28T22:59:27.308Z,12.3
2018-08-28T23:00:34.524Z,12.4
2018-08-28T23:01:41.751Z,12.4
2018-08-28T23:02:48.971Z,12.4
2018-08-28T23:03:56.188Z,12.3
2018-08-28T23:05:03.404Z,12.4
2018-08-28T23:06:10.343Z,12.4
2018-08-28T23:07:17.566Z,12.4
2018-08-28T23:08:24.783Z,12.4
2018-08-28T23:09:32.004Z,12.3
2018-08-28T23:10:38.988Z,12.4
2018-08-28T23:11:45.938Z,12.4
2018-08-28T23:12:53.159Z,12.3
2018-08-28T23:14:00.465Z,12.3
2018-08-28T23:15:07.776Z,12.3
2018-08-28T23:16:14.712Z,12.3
2018-08-28T23:17:21.946Z,12.3
2018-08-28T23:18:29.172Z,12.4
2018-08-28T23:19:36.389Z,12.4
2018-08-28T23:20:43.604Z,12.4
2018-08-28T23:21:50.822Z,12.4
2018-08-28T23:22:58.043Z,12.4
2018-08-28T23:24:05.282Z,12.4
2018-08-28T23:25:12.499Z,12.4
2018-08-28T23:26:19.716Z,12.4
2018-08-28T23:27:26.929Z,12.3
2018-08-28T23:28:34.160Z,12.3
2018-08-28T23:29:41.381Z,12.3
2018-08-28T23:30:48.598Z,12.3
2018-08-28T23:31:55.815Z,12.3
2018-08-28T23:33:02.756Z,12.3
2018-08-28T23:34:09.709Z,12.2
2018-08-28T23:35:16.937Z,12.2
2018-08-28T23:36:24.151Z,12.2
2018-08-28T23:37:31.373Z,12.2
2018-08-28T23:38:38.323Z,12.2
2018-08-28T23:39:45.540Z,12.2
2018-08-28T23:40:52.757Z,12.2
2018-08-28T23:41:59.999Z,12.1
2018-08-28T23:43:07.204Z,12.1
2018-08-28T23:44:14.184Z,12.1
2018-08-28T23:45:21.406Z,12.1
2018-08-28T23:46:28.626Z,12.1
2018-08-28T23:47:35.852Z,12.1
2018-08-28T23:48:43.084Z,12.1
2018-08-28T23:49:50.307Z,12.1
2018-08-28T23:50:57.519Z,12.1
2018-08-28T23:52:04.737Z,12.1
2018-08-28T23:53:11.671Z,12
2018-08-28T23:54:18.894Z,12
2018-08-28T23:55:26.134Z,12.1
2018-08-28T23:56:33.354Z,12
2018-08-28T23:57:40.572Z,12
2018-08-28T23:58:47.794Z,12
2018-08-28T23:59:54.456Z,11.9
